Pleasant Grove, California
Current Conditions -  °F | °C
As of 4:55 AM on Monday 20 Oct 2014 (Local Time) from KLHM Reporting Station
Clear Clear  
Wind Chill: 15°   Ceiling: Unl
Heat Index: 15°   Visibility: 10mi
Dew Point: 12°   Wind: 10mph
Humidity: 82%   Direction: 140°SE
Pressure: 29.88"   Gusts: NA
Location:  38.82°N, 121.48°W
Report Text: KLHM 201155Z AUTO 14009KT 10SM CLR 15/12 A2988 RMK AO1
Loading
Personal Weather Stations






























Interactive Weather Map
Tropical Storm Tracking
New forecast layout! Learn more

10-Day Weather Forecast

Advertisements
Track Severe Weather on mobile